Time;durP1;ratioP1;P1;durP2;ratioP2;P2;SDS_P1;SDS_P2;PMS_P1;PMS_P2;Temp;Humidity;BMP_temperature;BMP_pressure;BME280_temperature;BME280_humidity;BME280_pressure;Samples;Min_cycle;Max_cycle;Signal;HPM_P1;HPM_P2
2022/04/01 00:00:12;;;;;;;;;;;;;;;17.17;47.75;98371.09;5005848;28;19925;-84
2022/04/01 00:02:38;;;;;;;;;;;;;;;17.88;46.09;98390.59;5006246;28;20384;-84
2022/04/01 00:05:04;;;;;;;;;;;;;;;18.14;45.98;98390.69;5005718;28;20714;-84
2022/04/01 00:07:30;;;;;;;;;;;;;;;18.00;46.73;98385.44;5005703;28;20422;-84
2022/04/01 00:09:55;;;;;;;;;;;;;;;18.02;47.44;98355.00;5005833;28;19926;-84
2022/04/01 00:12:21;;;;;;;;;;;;;;;17.92;46.59;98359.25;5007037;28;19925;-83
2022/04/01 00:14:46;;;;;;;;;;;;;;;18.05;46.15;98341.44;5006647;28;19922;-84
2022/04/01 00:17:11;;;;;;;;;;;;;;;18.02;45.40;98339.00;5038684;28;19921;-84
2022/04/01 00:19:37;;;;;;;;;;;;;;;18.23;43.74;98315.34;5001918;28;19922;-84
2022/04/01 00:22:02;;;;;;;;;;;;;;;18.36;44.86;98293.16;4992705;28;19925;-84
2022/04/01 00:24:28;;;;;;;;;;;;;;;18.53;43.81;98313.34;5006779;28;19921;-84
2022/04/01 00:26:53;;;;;;;;;;;;;;;18.74;42.93;98303.81;5006149;28;20442;-84
2022/04/01 00:29:20;;;;;;;;;;;;;;;18.74;42.63;98281.59;5036660;28;19925;-84
2022/04/01 00:31:46;;;;;;;;;;;;;;;18.66;42.45;98247.44;5006323;28;20384;-84
2022/04/01 00:34:17;;;;;;;;;;;;;;;18.93;42.71;98246.44;5038461;28;19928;-84
2022/04/01 00:36:43;;;;;;;;;;;;;;;18.66;43.26;98242.09;5005971;28;19975;-84
2022/04/01 00:39:09;;;;;;;;;;;;;;;18.70;43.05;98221.34;5005751;28;20350;-84
2022/04/01 00:41:34;;;;;;;;;;;;;;;18.50;43.63;98228.09;5006123;28;19925;-84
2022/04/01 00:44:12;;;;;;;;;;;;;;;18.27;44.13;98259.09;5006157;28;19932;-84
2022/04/01 00:46:41;;;;;;;;;;;;;;;18.05;43.50;98252.56;5007273;28;19917;-84
2022/04/01 00:49:06;;;;;;;;;;;;;;;18.21;43.34;98218.53;4998104;28;19979;-84
2022/04/01 00:51:32;;;;;;;;;;;;;;;18.23;43.16;98203.25;4987500;28;20412;-83
2022/04/01 00:53:58;;;;;;;;;;;;;;;18.58;42.32;98225.75;4987330;28;19948;-84
2022/04/01 00:56:26;;;;;;;;;;;;;;;18.73;42.07;98205.09;4989547;28;19967;-83
2022/04/01 00:58:51;;;;;;;;;;;;;;;18.64;42.13;98181.72;4988058;28;20511;-84
2022/04/01 01:01:16;;;;;;;;;;;;;;;18.64;41.71;98173.72;5026073;28;20027;-84
2022/04/01 01:03:42;;;;;;;;;;;;;;;18.76;41.93;98159.47;5007050;28;19929;-84
2022/04/01 01:06:08;;;;;;;;;;;;;;;18.64;42.23;98133.66;5005474;28;20052;-84
2022/04/01 01:08:34;;;;;;;;;;;;;;;18.47;42.99;98132.22;5006031;28;20029;-84
2022/04/01 01:11:01;;;;;;;;;;;;;;;18.59;42.24;98150.03;5005695;28;20399;-84
2022/04/01 01:13:26;;;;;;;;;;;;;;;18.48;42.18;98166.81;5005453;28;20316;-84
2022/04/01 01:15:52;;;;;;;;;;;;;;;18.31;42.66;98181.34;5006212;28;19922;-84
2022/04/01 01:18:17;;;;;;;;;;;;;;;18.35;43.05;98182.84;5008742;28;19925;-84
2022/04/01 01:20:43;;;;;;;;;;;;;;;18.21;43.05;98191.84;5009135;28;20083;-85
2022/04/01 01:23:12;;;;;;;;;;;;;;;18.15;42.93;98194.06;5009118;28;19925;-84
2022/04/01 01:25:38;;;;;;;;;;;;;;;18.20;42.96;98210.63;5010020;28;20647;-83
2022/04/01 01:28:04;;;;;;;;;;;;;;;17.19;46.17;98219.13;5009175;28;19925;-84
2022/04/01 01:30:29;;;;;;;;;;;;;;;16.79;47.39;98195.06;5010245;28;20293;-84
2022/04/01 01:32:55;;;;;;;;;;;;;;;16.29;49.38;98192.84;5009225;28;19921;-84
2022/04/01 01:35:21;;;;;;;;;;;;;;;16.36;49.59;98200.44;5009613;28;20028;-83
2022/04/01 01:37:46;;;;;;;;;;;;;;;16.59;48.70;98189.22;5008080;28;20451;-84
2022/04/01 01:40:12;;;;;;;;;;;;;;;16.74;47.12;98176.72;4996643;28;20447;-84
2022/04/01 01:42:37;;;;;;;;;;;;;;;17.39;44.87;98183.19;5009851;28;19922;-83
2022/04/01 01:45:05;;;;;;;;;;;;;;;17.59;46.26;98191.66;5029488;28;19931;-84
2022/04/01 01:47:31;;;;;;;;;;;;;;;17.15;47.63;98185.69;5040703;28;20408;-83
2022/04/01 01:55:27;;;;;;;;;;;;;;;16.31;50.41;98240.63;5009400;28;19933;-83
2022/04/01 01:57:52;;;;;;;;;;;;;;;16.73;48.30;98209.63;5009403;28;19979;-84
2022/04/01 02:00:21;;;;;;;;;;;;;;;17.04;44.89;98170.41;5008728;28;20343;-84
2022/04/01 02:02:47;;;;;;;;;;;;;;;17.43;46.06;98175.84;5009476;28;20008;-84
2022/04/01 02:05:13;;;;;;;;;;;;;;;17.56;46.22;98174.03;5008416;28;20016;-85
2022/04/01 02:07:39;;;;;;;;;;;;;;;17.33;45.92;98173.81;5008825;28;19961;-84
2022/04/01 02:10:05;;;;;;;;;;;;;;;17.11;46.84;98163.69;5009298;28;20383;-85
2022/04/01 02:12:30;;;;;;;;;;;;;;;17.03;46.39;98118.06;5009612;28;19928;-84
2022/04/01 02:14:56;;;;;;;;;;;;;;;17.18;46.28;98148.19;5040952;28;19964;-84
2022/04/01 02:17:22;;;;;;;;;;;;;;;17.11;46.97;98187.66;4994247;28;19933;-84
2022/04/01 02:19:49;;;;;;;;;;;;;;;17.23;46.11;98179.84;5002601;28;20392;-84
2022/04/01 02:22:15;;;;;;;;;;;;;;;17.43;44.49;98131.38;4989369;28;19929;-83
2022/04/01 02:24:41;;;;;;;;;;;;;;;17.61;41.88;98105.28;5001232;28;19932;-84
2022/04/01 02:27:07;;;;;;;;;;;;;;;17.89;42.97;98106.06;5008979;28;19926;-83
2022/04/01 02:29:33;;;;;;;;;;;;;;;17.26;48.48;98115.69;5008403;28;20007;-84
2022/04/01 02:31:58;;;;;;;;;;;;;;;16.33;51.12;98097.75;5007626;28;20016;-84
2022/04/01 02:34:25;;;;;;;;;;;;;;;16.07;52.56;98133.97;5008737;28;19960;-84
2022/04/01 02:36:50;;;;;;;;;;;;;;;16.21;52.85;98136.59;5008527;28;20119;-85
2022/04/01 02:39:16;;;;;;;;;;;;;;;16.11;52.44;98149.63;5008260;28;20421;-84
2022/04/01 02:41:41;;;;;;;;;;;;;;;16.11;53.42;98156.75;5007936;28;19984;-84
2022/04/01 02:44:09;;;;;;;;;;;;;;;15.78;53.66;98154.38;5016310;28;20338;-84
2022/04/01 02:46:38;;;;;;;;;;;;;;;15.36;54.76;98154.16;5008750;28;20087;-82
2022/04/01 02:49:06;;;;;;;;;;;;;;;14.78;56.87;98158.38;5008209;28;19918;-83
2022/04/01 02:51:32;;;;;;;;;;;;;;;14.80;57.29;98167.13;5008374;28;19925;-82
2022/04/01 02:53:57;;;;;;;;;;;;;;;14.82;57.50;98189.13;5007833;28;19925;-83
2022/04/01 02:56:22;;;;;;;;;;;;;;;15.00;56.67;98181.91;5008443;28;19925;-83
2022/04/01 02:58:48;;;;;;;;;;;;;;;15.13;55.91;98171.44;5023745;28;19949;-81
2022/04/01 03:01:14;;;;;;;;;;;;;;;15.10;55.90;98161.84;5007709;28;20022;-81
2022/04/01 03:03:41;;;;;;;;;;;;;;;15.06;56.69;98178.91;5008074;28;19983;-82
2022/04/01 03:06:07;;;;;;;;;;;;;;;15.17;56.76;98199.53;5007029;28;19955;-83
2022/04/01 03:08:32;;;;;;;;;;;;;;;15.24;55.90;98214.16;5007889;28;19928;-84
2022/04/01 03:10:58;;;;;;;;;;;;;;;15.37;55.38;98222.31;5023092;28;19932;-85
2022/04/01 03:13:25;;;;;;;;;;;;;;;15.31;55.28;98218.19;5009259;28;19926;-84
2022/04/01 03:15:50;;;;;;;;;;;;;;;15.08;55.88;98206.22;5022989;28;20358;-82
2022/04/01 03:18:15;;;;;;;;;;;;;;;15.14;56.05;98232.44;5007985;28;19925;-84
2022/04/01 03:20:41;;;;;;;;;;;;;;;15.05;56.11;98238.25;5007491;28;20016;-82
2022/04/01 03:23:06;;;;;;;;;;;;;;;15.35;55.20;98210.88;5027843;28;20324;-87
2022/04/01 03:25:32;;;;;;;;;;;;;;;15.54;54.14;98216.00;5007738;28;19937;-84
2022/04/01 03:27:59;;;;;;;;;;;;;;;15.37;54.91;98219.66;5007594;28;19928;-83
2022/04/01 03:30:24;;;;;;;;;;;;;;;15.33;55.32;98223.41;5008091;28;19984;-82
2022/04/01 03:32:50;;;;;;;;;;;;;;;15.02;56.60;98241.09;5016501;28;20424;-83
2022/04/01 03:35:16;;;;;;;;;;;;;;;14.81;57.36;98257.28;5026863;28;19975;-83
2022/04/01 03:37:42;;;;;;;;;;;;;;;14.93;56.56;98220.38;5007531;28;19922;-81
2022/04/01 03:40:08;;;;;;;;;;;;;;;14.86;56.68;98209.25;5007289;28;19925;-80
2022/04/01 03:42:34;;;;;;;;;;;;;;;15.02;56.59;98203.91;5007665;28;19917;-81
2022/04/01 03:45:01;;;;;;;;;;;;;;;15.37;55.29;98217.84;5007192;28;19956;-81
2022/04/01 03:47:31;;;;;;;;;;;;;;;14.64;57.18;98212.22;5020813;28;20036;-80
2022/04/01 03:49:59;;;;;;;;;;;;;;;14.75;57.94;98219.59;5020447;28;19928;-80
2022/04/01 03:52:25;;;;;;;;;;;;;;;14.93;57.37;98215.91;5018488;28;19921;-80
2022/04/01 03:54:52;;;;;;;;;;;;;;;14.50;57.96;98221.78;5025559;28;19921;-83
2022/04/01 03:57:20;;;;;;;;;;;;;;;14.51;58.65;98214.66;5022751;28;19921;-84
2022/04/01 03:59:50;;;;;;;;;;;;;;;14.86;57.66;98210.09;5039370;28;19975;-82
2022/04/01 04:02:17;;;;;;;;;;;;;;;15.05;56.77;98222.34;5025547;28;19932;-82
2022/04/01 04:04:43;;;;;;;;;;;;;;;14.93;57.09;98228.34;5027082;28;20029;-82
2022/04/01 04:07:09;;;;;;;;;;;;;;;14.91;57.17;98204.53;5013763;28;19928;-82
2022/04/01 04:09:39;;;;;;;;;;;;;;;14.76;57.99;98200.06;5013379;28;19987;-81
2022/04/01 04:12:05;;;;;;;;;;;;;;;14.82;58.77;98207.69;5007739;28;19917;-81
2022/04/01 04:14:31;;;;;;;;;;;;;;;15.01;58.48;98204.84;5006498;28;20384;-82
2022/04/01 04:16:57;;;;;;;;;;;;;;;14.84;58.87;98198.72;5007389;28;19921;-85
2022/04/01 04:19:22;;;;;;;;;;;;;;;14.82;59.48;98189.97;5007251;28;20008;-81
2022/04/01 04:22:09;;;;;;;;;;;;;;;14.65;59.54;98205.97;5004476;28;19996;-82
2022/04/01 04:24:53;;;;;;;;;;;;;;;14.45;59.83;98196.44;4997469;28;19926;-83
2022/04/01 04:27:24;;;;;;;;;;;;;;;14.43;59.88;98193.88;5006202;28;19936;-83
2022/04/01 04:29:51;;;;;;;;;;;;;;;14.23;60.12;98186.16;5005365;28;19932;-83
2022/04/01 04:32:32;;;;;;;;;;;;;;;14.44;59.91;98192.06;5004372;28;20008;-82
2022/04/01 04:34:59;;;;;;;;;;;;;;;14.56;58.71;98188.72;4995317;28;19931;-85
2022/04/01 04:37:27;;;;;;;;;;;;;;;14.74;58.98;98186.06;5001602;28;19929;-83
2022/04/01 04:39:53;;;;;;;;;;;;;;;14.60;58.10;98185.00;5006701;28;19929;-84
2022/04/01 04:42:18;;;;;;;;;;;;;;;14.83;58.11;98190.84;5039135;28;20338;-85
2022/04/01 04:44:44;;;;;;;;;;;;;;;14.88;57.99;98209.16;5024350;28;20009;-83
2022/04/01 04:47:11;;;;;;;;;;;;;;;14.54;58.67;98213.66;4995390;28;19922;-83
2022/04/01 04:49:39;;;;;;;;;;;;;;;14.56;58.34;98201.16;5011229;28;19926;-84
2022/04/01 04:52:05;;;;;;;;;;;;;;;14.29;59.60;98186.66;5008153;28;19918;-83
2022/04/01 04:54:31;;;;;;;;;;;;;;;14.29;59.18;98193.78;5009876;28;19931;-82
2022/04/01 04:56:56;;;;;;;;;;;;;;;14.26;59.30;98191.28;5010671;28;20395;-82
2022/04/01 04:59:22;;;;;;;;;;;;;;;14.64;58.43;98191.00;5010110;28;19921;-83
2022/04/01 05:01:47;;;;;;;;;;;;;;;15.10;57.64;98211.44;5010838;28;19940;-84
2022/04/01 05:04:29;;;;;;;;;;;;;;;15.21;57.65;98227.63;5010369;28;20052;-82
2022/04/01 05:07:00;;;;;;;;;;;;;;;15.30;57.20;98215.63;5010189;28;19925;-83
2022/04/01 05:09:30;;;;;;;;;;;;;;;14.71;58.53;98218.91;5010399;28;20384;-83
2022/04/01 05:12:16;;;;;;;;;;;;;;;15.13;57.92;98217.44;5009916;28;20372;-83
2022/04/01 05:14:49;;;;;;;;;;;;;;;15.35;57.99;98214.41;5009440;28;20160;-83
2022/04/01 05:17:15;;;;;;;;;;;;;;;15.52;56.92;98199.28;5010393;28;19917;-83
2022/04/01 05:19:45;;;;;;;;;;;;;;;14.96;58.09;98188.34;5010244;28;19965;-84
2022/04/01 05:22:10;;;;;;;;;;;;;;;14.84;57.69;98192.53;5009932;28;20392;-84
2022/04/01 05:24:38;;;;;;;;;;;;;;;15.18;57.58;98199.44;5010164;28;19929;-84
2022/04/01 05:27:05;;;;;;;;;;;;;;;15.48;57.30;98185.31;5010131;28;20407;-82
2022/04/01 05:29:36;;;;;;;;;;;;;;;15.24;57.27;98189.41;5009608;28;19984;-81
2022/04/01 05:32:03;;;;;;;;;;;;;;;15.53;56.44;98195.69;5010138;28;20408;-81
2022/04/01 05:34:31;;;;;;;;;;;;;;;15.98;54.49;98177.94;5009589;28;19956;-82
2022/04/01 05:36:57;;;;;;;;;;;;;;;16.26;53.91;98185.06;5010426;28;19921;-82
2022/04/01 05:39:27;;;;;;;;;;;;;;;16.22;53.10;98180.00;5008609;28;20056;-82
2022/04/01 05:41:53;;;;;;;;;;;;;;;16.18;54.71;98191.81;5009028;28;19995;-83
2022/04/01 05:44:19;;;;;;;;;;;;;;;16.49;53.55;98182.75;5010127;28;19921;-81
2022/04/01 05:46:45;;;;;;;;;;;;;;;16.63;53.06;98188.06;5010035;28;19922;-81
2022/04/01 05:49:12;;;;;;;;;;;;;;;16.50;53.68;98167.63;5009950;28;19971;-81
2022/04/01 05:51:37;;;;;;;;;;;;;;;16.19;53.95;98173.09;5010028;28;19921;-81
2022/04/01 05:54:04;;;;;;;;;;;;;;;16.49;53.56;98177.44;5009273;28;19917;-84
2022/04/01 05:56:32;;;;;;;;;;;;;;;17.05;52.40;98165.91;5009752;28;19967;-81
2022/04/01 05:58:57;;;;;;;;;;;;;;;16.98;52.60;98154.81;5008630;28;19917;-83
2022/04/01 06:01:28;;;;;;;;;;;;;;;17.07;51.22;98156.88;5009291;28;19921;-84
2022/04/01 06:04:12;;;;;;;;;;;;;;;17.31;51.75;98162.38;5008332;28;19972;-84
2022/04/01 06:06:39;;;;;;;;;;;;;;;17.46;51.38;98162.31;5009270;28;20352;-83
2022/04/01 06:09:14;;;;;;;;;;;;;;;17.63;50.90;98161.16;5008420;28;20408;-84
2022/04/01 06:11:53;;;;;;;;;;;;;;;17.61;51.00;98153.28;5009700;28;19921;-84
2022/04/01 06:14:41;;;;;;;;;;;;;;;17.67;49.63;98146.66;5009047;28;19928;-85
2022/04/01 06:17:22;;;;;;;;;;;;;;;18.07;49.59;98152.78;5008551;28;20403;-83
2022/04/01 06:19:51;;;;;;;;;;;;;;;18.83;46.81;98147.38;5009160;28;19979;-86
2022/04/01 06:22:17;;;;;;;;;;;;;;;19.43;45.70;98139.41;5009076;28;20019;-84
2022/04/01 06:25:03;;;;;;;;;;;;;;;19.81;45.71;98130.28;5009227;28;20016;-84
2022/04/01 06:27:38;;;;;;;;;;;;;;;20.10;45.10;98133.34;5009021;28;20426;-86
2022/04/01 06:30:10;;;;;;;;;;;;;;;20.02;44.21;98130.44;5009081;28;19918;-82
2022/04/01 06:32:55;;;;;;;;;;;;;;;20.17;44.14;98136.38;5008834;28;19928;-83
2022/04/01 06:35:35;;;;;;;;;;;;;;;20.01;44.42;98120.69;5009206;28;19917;-84
2022/04/01 06:38:00;;;;;;;;;;;;;;;20.19;43.08;98121.91;5009116;28;20041;-84
2022/04/01 06:40:33;;;;;;;;;;;;;;;20.65;41.68;98125.44;5008627;28;20051;-84
2022/04/01 06:42:58;;;;;;;;;;;;;;;21.35;39.70;98125.91;5008740;28;20015;-85
2022/04/01 06:45:24;;;;;;;;;;;;;;;21.20;41.35;98128.06;5008744;28;20011;-84
2022/04/01 06:47:49;;;;;;;;;;;;;;;20.57;44.07;98128.72;5009265;28;20016;-85
2022/04/01 06:50:16;;;;;;;;;;;;;;;20.71;43.27;98116.03;5040540;28;20453;-85
2022/04/01 06:52:42;;;;;;;;;;;;;;;21.23;42.54;98118.91;5040429;28;20020;-85
2022/04/01 06:55:08;;;;;;;;;;;;;;;21.40;41.19;98112.13;5008197;28;20056;-84
2022/04/01 06:57:33;;;;;;;;;;;;;;;21.75;40.86;98105.59;5008403;28;19921;-84
2022/04/01 06:59:59;;;;;;;;;;;;;;;22.01;38.94;98106.00;5008366;28;19941;-84
2022/04/01 07:02:24;;;;;;;;;;;;;;;22.58;36.09;98102.84;5007790;28;19921;-86
2022/04/01 07:04:49;;;;;;;;;;;;;;;21.78;41.82;98114.25;5008583;28;20666;-87
2022/04/01 07:07:15;;;;;;;;;;;;;;;21.00;42.35;98112.78;5039654;28;20684;-85
2022/04/01 07:09:41;;;;;;;;;;;;;;;21.77;41.55;98095.59;5006384;28;19972;-84
2022/04/01 07:12:07;;;;;;;;;;;;;;;21.61;41.79;98096.91;5008639;28;19932;-84
2022/04/01 07:14:32;;;;;;;;;;;;;;;21.64;41.87;98103.81;5007364;28;19921;-84
2022/04/01 07:16:58;;;;;;;;;;;;;;;21.64;41.78;98106.50;5008260;28;19922;-84
2022/04/01 07:19:23;;;;;;;;;;;;;;;22.16;41.51;98111.88;5007155;28;19921;-84
2022/04/01 07:21:49;;;;;;;;;;;;;;;22.17;42.07;98103.69;5007949;28;19925;-85
2022/04/01 07:24:14;;;;;;;;;;;;;;;22.43;40.56;98097.00;5006839;28;19917;-84
2022/04/01 07:26:41;;;;;;;;;;;;;;;22.42;40.75;98104.22;5008078;28;20372;-85
2022/04/01 07:29:07;;;;;;;;;;;;;;;22.55;39.53;98101.28;5007605;28;19952;-83
2022/04/01 07:34:24;;;;;;;;;;;;;;;22.83;37.92;98088.03;5007146;28;19975;-83
2022/04/01 07:36:50;;;;;;;;;;;;;;;22.62;39.70;98088.16;5038239;28;20086;-83
2022/04/01 07:39:16;;;;;;;;;;;;;;;22.83;37.83;98086.22;5008066;28;19928;-81
2022/04/01 07:41:41;;;;;;;;;;;;;;;22.07;40.10;98094.72;5006979;28;20419;-84
2022/04/01 07:44:07;;;;;;;;;;;;;;;22.82;40.38;98097.94;5007422;28;19992;-83
2022/04/01 07:46:32;;;;;;;;;;;;;;;23.00;38.14;98105.31;5007592;28;20392;-84
2022/04/01 07:48:58;;;;;;;;;;;;;;;23.36;37.93;98101.09;5040157;28;19918;-82
2022/04/01 07:51:24;;;;;;;;;;;;;;;23.61;38.59;98098.81;5006372;28;19928;-83
2022/04/01 07:53:49;;;;;;;;;;;;;;;23.81;36.27;98099.59;5007684;28;19921;-82
2022/04/01 07:56:15;;;;;;;;;;;;;;;24.06;35.21;98090.06;5022511;28;19922;-83
2022/04/01 07:58:40;;;;;;;;;;;;;;;23.77;35.68;98099.06;5038421;28;19925;-83
2022/04/01 08:01:05;;;;;;;;;;;;;;;23.87;35.60;98088.28;5006720;28;19921;-84
2022/04/01 08:03:31;;;;;;;;;;;;;;;23.65;34.88;98086.75;5006554;28;19921;-82
2022/04/01 08:05:58;;;;;;;;;;;;;;;23.72;34.82;98079.78;5007416;28;19921;-83
2022/04/01 08:08:23;;;;;;;;;;;;;;;23.35;36.29;98082.41;5007642;28;20012;-84
2022/04/01 08:10:49;;;;;;;;;;;;;;;23.63;36.04;98088.72;5006668;28;20071;-82
2022/04/01 08:13:14;;;;;;;;;;;;;;;24.01;35.79;98096.91;5006958;28;19921;-83
2022/04/01 08:15:40;;;;;;;;;;;;;;;24.42;36.23;98100.09;5007241;28;19925;-83
2022/04/01 08:18:05;;;;;;;;;;;;;;;25.04;35.69;98103.03;5006175;28;20498;-83
2022/04/01 08:20:31;;;;;;;;;;;;;;;25.12;32.95;98103.09;5007387;28;19921;-83
2022/04/01 08:22:56;;;;;;;;;;;;;;;24.82;34.57;98101.59;5007253;28;20083;-82
2022/04/01 08:25:21;;;;;;;;;;;;;;;24.84;33.43;98095.06;5007184;28;19926;-82
2022/04/01 08:27:47;;;;;;;;;;;;;;;24.73;33.17;98091.72;5009616;28;20015;-83
2022/04/01 08:30:12;;;;;;;;;;;;;;;23.76;35.60;98083.91;5011403;28;19922;-83
2022/04/01 08:32:38;;;;;;;;;;;;;;;24.39;37.33;98074.31;5043017;28;19921;-83
2022/04/01 08:35:05;;;;;;;;;;;;;;;25.10;34.02;98083.53;5010927;28;20311;-81
2022/04/01 08:37:30;;;;;;;;;;;;;;;25.43;34.03;98081.13;5026319;28;19929;-83
2022/04/01 08:39:58;;;;;;;;;;;;;;;25.84;33.29;98085.94;5010586;28;20312;-82
2022/04/01 08:42:23;;;;;;;;;;;;;;;26.33;33.68;98075.44;5010526;28;19917;-84
2022/04/01 08:44:49;;;;;;;;;;;;;;;26.48;31.02;98072.94;5010387;28;19928;-83
2022/04/01 08:47:14;;;;;;;;;;;;;;;26.30;30.72;98058.69;5009950;28;19921;-84
2022/04/01 08:49:39;;;;;;;;;;;;;;;26.12;32.60;98067.75;5010182;28;19922;-82
2022/04/01 08:52:05;;;;;;;;;;;;;;;25.67;32.15;98064.25;5010908;28;19921;-83
2022/04/01 08:54:31;;;;;;;;;;;;;;;25.65;30.75;98060.03;5010221;28;20430;-83
2022/04/01 08:56:56;;;;;;;;;;;;;;;25.82;32.91;98047.47;5010550;28;19948;-85
2022/04/01 08:59:26;;;;;;;;;;;;;;;25.95;32.88;98041.63;5010275;28;20434;-84
2022/04/01 09:01:51;;;;;;;;;;;;;;;26.18;32.73;98045.50;5010546;28;19932;-84
2022/04/01 09:04:18;;;;;;;;;;;;;;;25.82;32.05;98037.50;5010340;28;19918;-84
2022/04/01 09:06:45;;;;;;;;;;;;;;;26.20;32.71;98034.53;5010675;28;19913;-84
2022/04/01 09:09:24;;;;;;;;;;;;;;;26.35;31.29;98026.63;5010283;28;20356;-84
2022/04/01 09:12:08;;;;;;;;;;;;;;;26.45;28.66;98021.91;5010557;28;20428;-84
2022/04/01 09:14:34;;;;;;;;;;;;;;;26.14;30.46;98016.25;5010377;28;20021;-84
2022/04/01 09:17:00;;;;;;;;;;;;;;;26.41;29.50;98007.03;5010362;28;19929;-83
2022/04/01 09:19:33;;;;;;;;;;;;;;;26.09;31.34;98000.53;5009723;28;19925;-84
2022/04/01 09:22:14;;;;;;;;;;;;;;;25.90;30.09;97993.47;5010221;28;19922;-85
2022/04/01 09:24:51;;;;;;;;;;;;;;;26.14;31.53;97997.34;5009739;28;19928;-83
2022/04/01 09:27:17;;;;;;;;;;;;;;;26.26;30.09;97998.75;5010168;28;20020;-84
2022/04/01 09:29:42;;;;;;;;;;;;;;;26.41;29.25;98001.63;5009044;28;20012;-85
2022/04/01 09:32:08;;;;;;;;;;;;;;;26.02;27.82;97985.97;5010414;28;19961;-84
2022/04/01 09:34:37;;;;;;;;;;;;;;;26.18;27.84;97990.59;5009369;28;19913;-82
2022/04/01 09:37:02;;;;;;;;;;;;;;;26.12;29.27;97993.94;5009684;28;19926;-86
2022/04/01 09:39:28;;;;;;;;;;;;;;;26.11;29.40;97997.66;5009521;28;19932;-84
2022/04/01 09:41:55;;;;;;;;;;;;;;;25.76;30.68;97986.84;5008998;28;19968;-84
2022/04/01 09:44:24;;;;;;;;;;;;;;;25.65;29.60;97973.63;5009975;28;19932;-85
2022/04/01 09:46:54;;;;;;;;;;;;;;;25.51;29.69;97975.06;5010092;28;19959;-83
2022/04/01 09:49:28;;;;;;;;;;;;;;;25.00;31.02;97980.25;5009726;28;19923;-85
2022/04/01 09:51:53;;;;;;;;;;;;;;;25.10;29.90;97977.44;5010136;28;19922;-86
2022/04/01 09:54:19;;;;;;;;;;;;;;;25.27;29.39;97964.94;5008521;28;20410;-86
2022/04/01 09:56:45;;;;;;;;;;;;;;;25.28;30.11;97970.16;5009765;28;19922;-85
2022/04/01 09:59:15;;;;;;;;;;;;;;;25.07;29.69;97965.16;5009415;28;19932;-84
2022/04/01 10:01:42;;;;;;;;;;;;;;;25.23;30.09;97969.81;5009555;28;19928;-85
2022/04/01 10:04:08;;;;;;;;;;;;;;;25.08;29.23;97966.81;5008853;28;20629;-85
2022/04/01 10:06:34;;;;;;;;;;;;;;;25.53;28.52;97954.16;5024898;28;19987;-85
2022/04/01 10:09:01;;;;;;;;;;;;;;;26.04;28.21;97951.53;5009205;28;19917;-85
2022/04/01 10:11:28;;;;;;;;;;;;;;;26.31;26.97;97936.09;5009698;28;19928;-84
2022/04/01 10:13:54;;;;;;;;;;;;;;;26.66;29.54;97937.66;5009699;28;19917;-84
2022/04/01 10:16:20;;;;;;;;;;;;;;;26.68;30.55;97941.06;5009089;28;19939;-84
2022/04/01 10:18:47;;;;;;;;;;;;;;;27.20;28.59;97931.69;5009823;28;20376;-85
2022/04/01 10:21:14;;;;;;;;;;;;;;;26.86;26.77;97911.13;5009292;28;19917;-85
2022/04/01 10:23:43;;;;;;;;;;;;;;;26.73;27.50;97927.03;5008721;28;20019;-84
2022/04/01 10:26:13;;;;;;;;;;;;;;;26.93;27.26;97925.66;5008999;28;19925;-85
2022/04/01 10:28:38;;;;;;;;;;;;;;;26.96;28.72;97906.38;5008887;28;19917;-85
2022/04/01 10:31:04;;;;;;;;;;;;;;;27.06;26.33;97918.88;5009276;28;20316;-85
2022/04/01 10:33:38;;;;;;;;;;;;;;;26.68;26.09;97905.03;5009367;28;19978;-84
2022/04/01 10:36:15;;;;;;;;;;;;;;;26.49;27.50;97906.19;5008826;28;19925;-83
2022/04/01 10:38:40;;;;;;;;;;;;;;;26.40;26.86;97892.69;5008786;28;19976;-85
2022/04/01 10:41:12;;;;;;;;;;;;;;;26.70;25.31;97893.03;5008921;28;20650;-84
2022/04/01 10:43:40;;;;;;;;;;;;;;;26.71;24.51;97889.34;5024144;28;20320;-86
2022/04/01 10:46:23;;;;;;;;;;;;;;;26.95;25.18;97885.75;5008950;28;19922;-87
2022/04/01 10:52:01;;;;;;;;;;;;;;;26.05;26.77;97870.31;5009597;28;19972;-85
2022/04/01 10:54:29;;;;;;;;;;;;;;;26.12;26.00;97881.34;5008644;28;20280;-85
2022/04/01 10:56:56;;;;;;;;;;;;;;;26.19;25.64;97862.59;5008690;28;19944;-87
2022/04/01 10:59:22;;;;;;;;;;;;;;;26.65;26.53;97865.66;5008102;28;20455;-85
2022/04/01 11:01:56;;;;;;;;;;;;;;;27.02;26.91;97879.66;5008849;28;20000;-86
2022/04/01 11:04:21;;;;;;;;;;;;;;;26.82;25.95;97871.91;5007692;28;19929;-86
2022/04/01 11:06:53;;;;;;;;;;;;;;;26.63;27.00;97875.78;5008528;28;19921;-86
2022/04/01 11:09:36;;;;;;;;;;;;;;;26.01;26.92;97877.09;5007581;28;20459;-85
2022/04/01 11:12:17;;;;;;;;;;;;;;;25.96;27.35;97868.59;5007845;28;20007;-85
2022/04/01 11:17:24;;;;;;;;;;;;;;;25.85;28.40;97872.44;5007484;28;19984;-85
2022/04/01 11:20:06;;;;;;;;;;;;;;;25.98;27.59;97855.81;5008141;28;19921;-87
2022/04/01 11:22:37;;;;;;;;;;;;;;;26.07;26.81;97849.41;5006473;28;19917;-84
2022/04/01 11:25:03;;;;;;;;;;;;;;;26.44;26.02;97853.47;5008229;28;19926;-87
2022/04/01 11:27:29;;;;;;;;;;;;;;;26.23;27.93;97847.75;5007961;28;19928;-85
2022/04/01 11:30:04;;;;;;;;;;;;;;;26.47;26.54;97852.28;5007241;28;19929;-85
2022/04/01 11:32:30;;;;;;;;;;;;;;;26.50;26.24;97845.72;5007362;28;19928;-85
2022/04/01 11:34:56;;;;;;;;;;;;;;;26.12;27.67;97850.75;5007109;28;19918;-85
2022/04/01 11:37:21;;;;;;;;;;;;;;;26.21;26.79;97855.16;5007280;28;19925;-84
2022/04/01 11:39:47;;;;;;;;;;;;;;;26.41;25.71;97847.56;5039666;28;20044;-86
2022/04/01 11:42:12;;;;;;;;;;;;;;;26.70;27.40;97836.25;5006545;28;19926;-84
2022/04/01 11:44:37;;;;;;;;;;;;;;;26.67;26.18;97844.72;5007727;28;19921;-85
2022/04/01 11:47:03;;;;;;;;;;;;;;;26.63;26.70;97832.50;5007182;28;19922;-85
2022/04/01 11:49:29;;;;;;;;;;;;;;;26.51;26.28;97832.03;5007235;28;20388;-84
2022/04/01 11:51:54;;;;;;;;;;;;;;;26.25;25.58;97834.91;5006987;28;19922;-85
2022/04/01 11:54:20;;;;;;;;;;;;;;;26.34;26.28;97830.34;5007402;28;19979;-85
2022/04/01 11:56:50;;;;;;;;;;;;;;;26.41;26.03;97825.94;5007430;28;20012;-85
2022/04/01 11:59:15;;;;;;;;;;;;;;;26.37;25.87;97825.44;5006635;28;19917;-85
2022/04/01 12:01:57;;;;;;;;;;;;;;;26.39;26.88;97807.19;5007710;28;19921;-87
2022/04/01 12:04:29;;;;;;;;;;;;;;;26.23;25.72;97802.66;5006798;28;19925;-85
2022/04/01 12:09:41;;;;;;;;;;;;;;;26.37;26.47;97792.16;5007226;28;19975;-84
2022/04/01 12:12:07;;;;;;;;;;;;;;;26.41;26.46;97788.09;5039679;28;19922;-85
2022/04/01 12:14:33;;;;;;;;;;;;;;;26.78;27.46;97802.94;5007329;28;19921;-85
2022/04/01 12:17:02;;;;;;;;;;;;;;;26.89;27.43;97799.88;5039974;28;20370;-86
2022/04/01 12:19:30;;;;;;;;;;;;;;;26.52;26.23;97792.31;5007790;28;19922;-85
2022/04/01 12:21:56;;;;;;;;;;;;;;;26.66;26.60;97796.22;5007796;28;19922;-87
2022/04/01 12:24:22;;;;;;;;;;;;;;;26.74;28.53;97798.91;5006971;28;19960;-85
2022/04/01 12:26:48;;;;;;;;;;;;;;;27.14;26.80;97802.50;5007404;28;19964;-84
2022/04/01 12:29:20;;;;;;;;;;;;;;;27.21;28.02;97802.66;5007712;28;19929;-84
2022/04/01 12:31:52;;;;;;;;;;;;;;;27.16;25.20;97797.78;5007490;28;19928;-84
2022/04/01 12:34:17;;;;;;;;;;;;;;;26.75;27.32;97792.47;5007158;28;20415;-82
2022/04/01 12:36:50;;;;;;;;;;;;;;;26.68;26.07;97791.47;5007193;28;19917;-83
2022/04/01 12:39:15;;;;;;;;;;;;;;;25.82;24.35;97789.06;5007277;28;20008;-83
2022/04/01 12:41:51;;;;;;;;;;;;;;;25.90;24.64;97797.19;5006769;28;20008;-83
2022/04/01 12:44:17;;;;;;;;;;;;;;;25.74;26.23;97779.09;5006912;28;19956;-82
2022/04/01 12:46:49;;;;;;;;;;;;;;;25.49;25.65;97769.28;5005945;28;20425;-81
2022/04/01 12:49:15;;;;;;;;;;;;;;;25.48;26.42;97767.56;5006097;28;19948;-82
2022/04/01 12:51:48;;;;;;;;;;;;;;;25.55;25.87;97766.75;5007220;28;19932;-82
2022/04/01 12:54:22;;;;;;;;;;;;;;;25.71;26.71;97751.59;5006898;28;19929;-85
2022/04/01 12:56:51;;;;;;;;;;;;;;;25.83;25.86;97742.16;5005639;28;19917;-82
2022/04/01 12:59:17;;;;;;;;;;;;;;;25.76;26.28;97735.72;5021272;28;21048;-85
2022/04/01 13:01:54;;;;;;;;;;;;;;;25.75;26.90;97739.47;5007224;28;19922;-83
2022/04/01 13:04:20;;;;;;;;;;;;;;;25.45;25.97;97728.25;5037991;28;19980;-86
2022/04/01 13:07:09;;;;;;;;;;;;;;;25.53;25.93;97717.50;5006914;28;19960;-85